Time;durP1;ratioP1;P1;durP2;ratioP2;P2;SDS_P1;SDS_P2;PMS_P1;PMS_P2;Temp;Humidity;BMP_temperature;BMP_pressure;BME280_temperature;BME280_humidity;BME280_pressure;Samples;Min_cycle;Max_cycle;Signal;HPM_P1;HPM_P2
2023/06/13 00:02:25;;;;;;;;;24.67;23.67;;;;;;;;5062591;28;45291;-76
2023/06/13 00:04:51;;;;;;;;;23.00;22.00;;;;;;;;5062684;28;45362;-75
2023/06/13 00:07:16;;;;;;;;;22.00;22.00;;;;;;;;5062170;28;45320;-76
2023/06/13 00:09:42;;;;;;;;;24.33;23.33;;;;;;;;5062176;28;46135;-75
2023/06/13 00:12:09;;;;;;;;;21.00;19.00;;;;;;;;5062490;28;45353;-75
2023/06/13 00:14:35;;;;;;;;;19.00;19.00;;;;;;;;5062397;28;45239;-76
2023/06/13 00:17:01;;;;;;;;;23.67;23.67;;;;;;;;5062120;28;45220;-75
2023/06/13 00:19:28;;;;;;;;;18.00;18.00;;;;;;;;5062162;28;45372;-75
2023/06/13 00:21:56;;;;;;;;;19.33;19.33;;;;;;;;5061860;28;45390;-75
2023/06/13 00:24:21;;;;;;;;;24.33;22.67;;;;;;;;5062329;28;45283;-75
2023/06/13 00:26:46;;;;;;;;;22.00;21.67;;;;;;;;5061995;28;45256;-76
2023/06/13 00:29:11;;;;;;;;;23.00;23.00;;;;;;;;5061560;28;46219;-75
2023/06/13 00:31:37;;;;;;;;;23.33;21.67;;;;;;;;5061472;28;45488;-75
2023/06/13 00:34:02;;;;;;;;;20.33;19.33;;;;;;;;5061752;28;45300;-75
2023/06/13 00:36:28;;;;;;;;;21.33;21.00;;;;;;;;5061591;28;45221;-76
2023/06/13 00:38:57;;;;;;;;;17.67;17.67;;;;;;;;5061665;28;46220;-76
2023/06/13 00:41:22;;;;;;;;;20.00;19.00;;;;;;;;5061681;28;45300;-76
2023/06/13 00:43:48;;;;;;;;;20.33;20.00;;;;;;;;5061444;28;45256;-76
2023/06/13 00:46:14;;;;;;;;;18.33;18.33;;;;;;;;5061125;28;45326;-76
2023/06/13 00:48:40;;;;;;;;;19.33;18.67;;;;;;;;5061844;28;46574;-75
2023/06/13 00:51:06;;;;;;;;;19.00;18.00;;;;;;;;5061566;28;45320;-76
2023/06/13 00:53:31;;;;;;;;;22.67;22.67;;;;;;;;5061717;28;45321;-77
2023/06/13 00:55:57;;;;;;;;;25.00;24.00;;;;;;;;5061489;28;45254;-76
2023/06/13 00:58:22;;;;;;;;;23.67;23.67;;;;;;;;5061596;28;46107;-75
2023/06/13 01:00:49;;;;;;;;;29.33;26.67;;;;;;;;5061715;28;45268;-75
2023/06/13 01:03:17;;;;;;;;;23.33;23.00;;;;;;;;5061748;28;45207;-75
2023/06/13 01:05:43;;;;;;;;;20.33;20.33;;;;;;;;5061161;28;45354;-75
2023/06/13 01:08:10;;;;;;;;;23.67;23.33;;;;;;;;5061145;28;45314;-75
2023/06/13 01:10:40;;;;;;;;;25.00;25.00;;;;;;;;5061485;28;45377;-75
2023/06/13 01:13:05;;;;;;;;;22.33;22.33;;;;;;;;5061483;28;45193;-75
2023/06/13 01:15:34;;;;;;;;;24.33;24.00;;;;;;;;5061150;28;45663;-75
2023/06/13 01:18:00;;;;;;;;;21.67;21.67;;;;;;;;5061375;28;45646;-75
2023/06/13 01:20:31;;;;;;;;;23.33;22.00;;;;;;;;5061110;28;45390;-75
2023/06/13 01:23:06;;;;;;;;;29.67;27.67;;;;;;;;5061007;28;45324;-75
2023/06/13 01:25:57;;;;;;;;;23.00;22.33;;;;;;;;5060441;28;45545;-74
2023/06/13 01:28:22;;;;;;;;;24.00;23.00;;;;;;;;5060841;28;46271;-75
2023/06/13 01:30:48;;;;;;;;;23.00;20.67;;;;;;;;5059569;28;45251;-76
2023/06/13 01:33:14;;;;;;;;;23.33;21.67;;;;;;;;5061122;28;45330;-76
2023/06/13 01:35:40;;;;;;;;;23.67;23.67;;;;;;;;5060858;28;45636;-75
2023/06/13 01:38:06;;;;;;;;;26.33;25.67;;;;;;;;5060558;28;45419;-75
2023/06/13 01:40:31;;;;;;;;;26.67;26.67;;;;;;;;5060821;28;45295;-75
2023/06/13 01:42:56;;;;;;;;;25.67;25.00;;;;;;;;5061159;28;45289;-75
2023/06/13 01:45:22;;;;;;;;;25.00;23.67;;;;;;;;5060997;28;45323;-75
2023/06/13 01:47:59;;;;;;;;;25.00;24.33;;;;;;;;5060839;28;45967;-75
2023/06/13 01:50:27;;;;;;;;;22.33;21.67;;;;;;;;5060843;28;45276;-75
2023/06/13 01:53:04;;;;;;;;;29.33;27.33;;;;;;;;5060595;28;45194;-76
2023/06/13 01:55:31;;;;;;;;;19.67;19.67;;;;;;;;5060507;28;45314;-75
2023/06/13 01:58:05;;;;;;;;;21.67;21.67;;;;;;;;5059941;28;46190;-76
2023/06/13 02:00:31;;;;;;;;;28.67;27.33;;;;;;;;5060583;28;45284;-76
2023/06/13 02:02:57;;;;;;;;;24.67;24.67;;;;;;;;5060791;28;45299;-76
2023/06/13 02:05:25;;;;;;;;;28.00;27.67;;;;;;;;5060469;28;45315;-76
2023/06/13 02:07:53;;;;;;;;;24.33;22.67;;;;;;;;5060023;28;45373;-75
2023/06/13 02:10:18;;;;;;;;;23.67;23.00;;;;;;;;5060510;28;45248;-76
2023/06/13 02:12:43;;;;;;;;;29.00;28.00;;;;;;;;5060676;28;45885;-75
2023/06/13 02:15:09;;;;;;;;;25.00;24.00;;;;;;;;5060334;28;45316;-74
2023/06/13 02:17:35;;;;;;;;;27.33;26.67;;;;;;;;5060415;28;46106;-76
2023/06/13 02:20:00;;;;;;;;;25.67;25.67;;;;;;;;5060317;28;45319;-75
2023/06/13 02:22:25;;;;;;;;;28.00;26.67;;;;;;;;5060381;28;45481;-75
2023/06/13 02:24:51;;;;;;;;;25.33;25.33;;;;;;;;5060225;28;45461;-75
2023/06/13 02:27:17;;;;;;;;;33.67;30.67;;;;;;;;5060259;28;45287;-75
2023/06/13 02:29:44;;;;;;;;;26.00;26.00;;;;;;;;5060047;28;45325;-75
2023/06/13 02:32:09;;;;;;;;;21.00;20.67;;;;;;;;5060391;28;45366;-75
2023/06/13 02:34:34;;;;;;;;;29.00;26.00;;;;;;;;5060034;28;45504;-75
2023/06/13 02:36:59;;;;;;;;;29.67;27.67;;;;;;;;5059690;28;45303;-75
2023/06/13 02:39:24;;;;;;;;;26.33;26.33;;;;;;;;5060150;28;45299;-75
2023/06/13 02:41:49;;;;;;;;;30.00;27.67;;;;;;;;5060074;28;45282;-75
2023/06/13 02:44:15;;;;;;;;;32.00;29.67;;;;;;;;5059852;28;45333;-75
2023/06/13 02:46:40;;;;;;;;;27.00;26.33;;;;;;;;5059986;28;45399;-75
2023/06/13 02:49:05;;;;;;;;;22.00;21.33;;;;;;;;5059984;28;45295;-75
2023/06/13 02:51:30;;;;;;;;;24.67;24.00;;;;;;;;5059755;28;45501;-75
2023/06/13 02:53:56;;;;;;;;;26.00;23.33;;;;;;;;5059898;28;45524;-75
2023/06/13 02:56:21;;;;;;;;;28.33;27.67;;;;;;;;5059739;28;46338;-75
2023/06/13 02:58:46;;;;;;;;;25.33;25.33;;;;;;;;5059819;28;45184;-75
2023/06/13 03:01:12;;;;;;;;;27.33;26.33;;;;;;;;5059095;28;45271;-75
2023/06/13 03:03:37;;;;;;;;;28.33;27.67;;;;;;;;5059641;28;45213;-76
2023/06/13 03:06:04;;;;;;;;;27.33;24.67;;;;;;;;5059583;28;45994;-75
2023/06/13 03:08:30;;;;;;;;;28.00;27.00;;;;;;;;5058348;28;45395;-75
2023/06/13 03:10:56;;;;;;;;;30.67;29.33;;;;;;;;5058512;28;45293;-75
2023/06/13 03:13:22;;;;;;;;;30.00;28.00;;;;;;;;5059507;28;45457;-75
2023/06/13 03:15:47;;;;;;;;;28.00;27.00;;;;;;;;5059437;28;45418;-75
2023/06/13 03:18:13;;;;;;;;;27.67;27.00;;;;;;;;5059618;28;45309;-75
2023/06/13 03:20:45;;;;;;;;;28.33;27.00;;;;;;;;5059564;28;45530;-75
2023/06/13 03:23:10;;;;;;;;;30.00;28.00;;;;;;;;5059228;28;45288;-75
2023/06/13 03:25:35;;;;;;;;;27.33;27.00;;;;;;;;5059334;28;45253;-75
2023/06/13 03:28:00;;;;;;;;;33.67;30.33;;;;;;;;5059339;28;45146;-75
2023/06/13 03:30:25;;;;;;;;;28.67;27.67;;;;;;;;5072379;28;45512;-76
2023/06/13 03:32:54;;;;;;;;;33.00;30.00;;;;;;;;5079672;28;45243;-75
2023/06/13 03:35:20;;;;;;;;;29.00;28.00;;;;;;;;5079293;28;45330;-75
2023/06/13 03:37:45;;;;;;;;;28.67;27.67;;;;;;;;5079066;28;45352;-75
2023/06/13 03:40:10;;;;;;;;;25.00;25.00;;;;;;;;5079546;28;45348;-75
2023/06/13 03:42:36;;;;;;;;;31.67;29.33;;;;;;;;5079775;28;45334;-75
2023/06/13 03:45:01;;;;;;;;;34.67;30.33;;;;;;;;5079474;28;45419;-74
2023/06/13 03:47:26;;;;;;;;;31.00;28.67;;;;;;;;5079419;28;45285;-75
2023/06/13 03:49:51;;;;;;;;;26.67;26.00;;;;;;;;5079688;28;45286;-75
2023/06/13 03:52:16;;;;;;;;;31.00;29.00;;;;;;;;5079002;28;45161;-75
2023/06/13 03:54:42;;;;;;;;;29.33;28.00;;;;;;;;5079356;28;45363;-75
2023/06/13 03:57:07;;;;;;;;;33.33;29.67;;;;;;;;5079353;28;45352;-75
2023/06/13 03:59:33;;;;;;;;;31.00;29.33;;;;;;;;5079520;28;45145;-75
2023/06/13 04:01:58;;;;;;;;;31.33;29.33;;;;;;;;5079319;28;45389;-75
2023/06/13 04:04:26;;;;;;;;;25.67;25.67;;;;;;;;5079098;28;45232;-75
2023/06/13 04:06:52;;;;;;;;;34.67;30.33;;;;;;;;5079015;28;45367;-75
2023/06/13 04:09:17;;;;;;;;;30.67;27.33;;;;;;;;5079348;28;45358;-75
2023/06/13 04:11:43;;;;;;;;;30.00;27.33;;;;;;;;5079150;28;45553;-75
2023/06/13 04:14:08;;;;;;;;;23.33;23.33;;;;;;;;5079175;28;45388;-75
2023/06/13 04:16:33;;;;;;;;;31.67;29.33;;;;;;;;5078931;28;45398;-75
2023/06/13 04:19:01;;;;;;;;;30.67;26.33;;;;;;;;5079358;28;45295;-76
2023/06/13 04:21:26;;;;;;;;;28.00;26.67;;;;;;;;5080054;28;45345;-75
2023/06/13 04:23:52;;;;;;;;;28.67;26.33;;;;;;;;5082351;28;46123;-75
2023/06/13 04:26:17;;;;;;;;;30.00;27.33;;;;;;;;5082476;28;45233;-75
2023/06/13 04:28:43;;;;;;;;;29.00;28.00;;;;;;;;5078924;28;45233;-75
2023/06/13 04:31:10;;;;;;;;;27.67;26.00;;;;;;;;5062139;28;45520;-75
2023/06/13 04:33:37;;;;;;;;;28.67;27.67;;;;;;;;5061963;28;45315;-75
2023/06/13 04:36:05;;;;;;;;;30.00;27.67;;;;;;;;5061722;28;45417;-75
2023/06/13 04:38:31;;;;;;;;;24.33;24.00;;;;;;;;5061823;28;45232;-75
2023/06/13 04:40:57;;;;;;;;;26.67;26.00;;;;;;;;5061671;28;45409;-74
2023/06/13 04:43:22;;;;;;;;;28.00;27.67;;;;;;;;5061719;28;45369;-75
2023/06/13 04:45:48;;;;;;;;;28.00;27.00;;;;;;;;5047781;28;45264;-75
2023/06/13 04:48:14;;;;;;;;;29.00;28.00;;;;;;;;5041020;28;45281;-76
2023/06/13 04:50:40;;;;;;;;;26.00;26.00;;;;;;;;5041113;28;45501;-75
2023/06/13 04:53:07;;;;;;;;;27.33;27.33;;;;;;;;5043331;28;45918;-75
2023/06/13 04:55:35;;;;;;;;;31.33;27.00;;;;;;;;5061598;28;45494;-75
2023/06/13 04:58:00;;;;;;;;;31.67;29.00;;;;;;;;5061766;28;45413;-75
2023/06/13 05:00:25;;;;;;;;;30.33;27.67;;;;;;;;5061521;28;45346;-75
2023/06/13 05:02:51;;;;;;;;;33.00;29.00;;;;;;;;5061757;28;45420;-75
2023/06/13 05:05:18;;;;;;;;;30.67;28.00;;;;;;;;5061244;28;45268;-75
2023/06/13 05:07:43;;;;;;;;;34.00;31.00;;;;;;;;5061652;28;45314;-76
2023/06/13 05:10:08;;;;;;;;;33.00;29.67;;;;;;;;5061414;28;45204;-75
2023/06/13 05:12:33;;;;;;;;;35.00;31.33;;;;;;;;5039538;28;46304;-74
2023/06/13 05:14:59;;;;;;;;;40.33;35.00;;;;;;;;5041016;28;45455;-76
2023/06/13 05:17:27;;;;;;;;;32.67;30.33;;;;;;;;5060216;28;45477;-75
2023/06/13 05:19:53;;;;;;;;;33.00;30.00;;;;;;;;5059904;28;45301;-75
2023/06/13 05:22:18;;;;;;;;;35.00;32.67;;;;;;;;5059550;28;45412;-74
2023/06/13 05:24:44;;;;;;;;;42.33;35.33;;;;;;;;5059977;28;45522;-74
2023/06/13 05:27:09;;;;;;;;;38.67;33.00;;;;;;;;5060023;28;45730;-75
2023/06/13 05:29:34;;;;;;;;;39.00;34.00;;;;;;;;5060195;28;45402;-76
2023/06/13 05:31:59;;;;;;;;;38.00;32.67;;;;;;;;5057722;28;46279;-76
2023/06/13 05:34:26;;;;;;;;;48.00;40.67;;;;;;;;5049491;28;45586;-77
2023/06/13 05:36:52;;;;;;;;;49.00;41.00;;;;;;;;5048290;28;45339;-76
2023/06/13 05:39:18;;;;;;;;;51.00;40.67;;;;;;;;5053229;28;45442;-75
2023/06/13 05:41:43;;;;;;;;;45.00;37.67;;;;;;;;5059928;28;45341;-75
2023/06/13 05:44:08;;;;;;;;;37.67;32.33;;;;;;;;5061962;28;45470;-75
2023/06/13 05:46:33;;;;;;;;;50.00;41.00;;;;;;;;5060192;28;45556;-75
2023/06/13 05:48:58;;;;;;;;;84.50;80.50;;;;;;;;5061245;28;45248;-76
2023/06/13 05:51:24;;;;;;;;;96.50;89.50;;;;;;;;5064226;28;46557;-76
2023/06/13 05:53:50;;;;;;;;;63.50;48.50;;;;;;;;5059971;28;45302;-76
2023/06/13 05:56:15;;;;;;;;;35.67;30.33;;;;;;;;5056344;28;45275;-76
2023/06/13 05:58:41;;;;;;;;;31.67;29.67;;;;;;;;5049483;28;45589;-75
2023/06/13 06:01:06;;;;;;;;;42.00;34.33;;;;;;;;5044223;28;45418;-75
2023/06/13 06:03:33;;;;;;;;;52.67;42.33;;;;;;;;5058674;28;45737;-75
2023/06/13 06:05:58;;;;;;;;;54.67;44.67;;;;;;;;5060765;28;45235;-77
2023/06/13 06:08:24;;;;;;;;;59.67;46.67;;;;;;;;5061139;28;45450;-75
2023/06/13 06:10:49;;;;;;;;;42.67;34.00;;;;;;;;5061847;28;45502;-75
2023/06/13 06:13:14;;;;;;;;;42.67;35.00;;;;;;;;5060602;28;45310;-76
2023/06/13 06:15:40;;;;;;;;;28.00;26.67;;;;;;;;5060458;28;45284;-76
2023/06/13 06:18:05;;;;;;;;;37.33;32.67;;;;;;;;5060807;28;45300;-75
2023/06/13 06:20:30;;;;;;;;;25.33;25.33;;;;;;;;5063772;28;45631;-75
2023/06/13 06:22:56;;;;;;;;;27.00;26.00;;;;;;;;5065448;28;45627;-75
2023/06/13 06:25:21;;;;;;;;;28.00;27.33;;;;;;;;5052300;28;45290;-77
2023/06/13 06:27:46;;;;;;;;;54.33;41.67;;;;;;;;5042675;28;45298;-76
2023/06/13 06:30:12;;;;;;;;;55.00;43.67;;;;;;;;5055390;28;47201;-77
2023/06/13 06:32:37;;;;;;;;;124.00;113.00;;;;;;;;5060200;28;45292;-78
2023/06/13 06:35:05;;;;;;;;;45.00;37.67;;;;;;;;5060914;28;45247;-77
2023/06/13 06:37:32;;;;;;;;;31.67;28.00;;;;;;;;5060831;28;45483;-75
2023/06/13 06:39:57;;;;;;;;;29.00;28.00;;;;;;;;5060419;28;45378;-76
2023/06/13 06:42:22;;;;;;;;;29.00;27.33;;;;;;;;5058158;28;45383;-77
2023/06/13 06:44:48;;;;;;;;;45.33;38.67;;;;;;;;5059797;28;45283;-75
2023/06/13 06:47:13;;;;;;;;;45.67;37.00;;;;;;;;5059820;28;45337;-76
2023/06/13 06:49:39;;;;;;;;;30.00;29.00;;;;;;;;5058546;28;46385;-76
2023/06/13 06:52:04;;;;;;;;;42.00;35.50;;;;;;;;5059829;28;45274;-77
2023/06/13 06:54:29;;;;;;;;;26.67;26.00;;;;;;;;5060027;28;45378;-77
2023/06/13 06:56:54;;;;;;;;;27.33;27.00;;;;;;;;5059825;28;45487;-77
2023/06/13 06:59:20;;;;;;;;;28.00;27.00;;;;;;;;5059783;28;46102;-77
2023/06/13 07:01:45;;;;;;;;;29.33;26.67;;;;;;;;5059890;28;45225;-77
2023/06/13 07:04:10;;;;;;;;;27.33;26.00;;;;;;;;5059979;28;45470;-77
2023/06/13 07:06:35;;;;;;;;;24.67;24.33;;;;;;;;5059714;28;45251;-77
2023/06/13 07:09:00;;;;;;;;;75.00;66.75;;;;;;;;5059536;28;45510;-78
2023/06/13 07:11:26;;;;;;;;;69.50;63.75;;;;;;;;5059745;28;45472;-78
2023/06/13 07:13:51;;;;;;;;;46.67;38.67;;;;;;;;5059907;28;45339;-78
2023/06/13 07:16:16;;;;;;;;;41.67;35.00;;;;;;;;5059460;28;45291;-77
2023/06/13 07:18:41;;;;;;;;;109.00;102.00;;;;;;;;5059489;28;45232;-77
2023/06/13 07:21:06;;;;;;;;;44.67;37.67;;;;;;;;5059312;28;45248;-78
2023/06/13 07:23:32;;;;;;;;;23.67;23.67;;;;;;;;5059692;28;45226;-78
2023/06/13 07:25:57;;;;;;;;;49.33;40.67;;;;;;;;5059608;28;45425;-78
2023/06/13 07:28:22;;;;;;;;;75.75;68.25;;;;;;;;5059237;28;46384;-77
2023/06/13 07:30:47;;;;;;;;;75.75;72.25;;;;;;;;5059634;28;45212;-78
2023/06/13 07:33:12;;;;;;;;;76.75;71.50;;;;;;;;5059479;28;45137;-80
2023/06/13 07:35:38;;;;;;;;;33.67;30.00;;;;;;;;5059266;28;45236;-78
2023/06/13 07:38:03;;;;;;;;;69.00;60.00;;;;;;;;5058964;28;46309;-78
2023/06/13 07:40:28;;;;;;;;;49.00;39.33;;;;;;;;5059201;28;45142;-79
2023/06/13 07:42:54;;;;;;;;;36.33;30.33;;;;;;;;5059775;28;45200;-79
2023/06/13 07:45:20;;;;;;;;;47.33;38.00;;;;;;;;5061804;28;47160;-79
2023/06/13 07:47:45;;;;;;;;;52.33;42.00;;;;;;;;5061409;28;46274;-78
2023/06/13 07:50:10;;;;;;;;;50.00;40.00;;;;;;;;5061658;28;46114;-79
2023/06/13 07:52:36;;;;;;;;;33.67;31.00;;;;;;;;5063227;28;45405;-78
2023/06/13 07:55:02;;;;;;;;;34.33;31.33;;;;;;;;5064786;28;45555;-77
2023/06/13 07:57:27;;;;;;;;;26.33;25.33;;;;;;;;5062490;28;45410;-79
2023/06/13 07:59:55;;;;;;;;;85.25;74.50;;;;;;;;5063449;28;45307;-80
2023/06/13 08:02:20;;;;;;;;;50.33;40.00;;;;;;;;5063077;28;45322;-81
2023/06/13 08:04:45;;;;;;;;;27.33;27.00;;;;;;;;5062491;28;46318;-83
2023/06/13 08:07:11;;;;;;;;;28.33;27.67;;;;;;;;5067017;28;45248;-81
2023/06/13 08:09:36;;;;;;;;;28.33;26.33;;;;;;;;5070038;28;45322;-81
2023/06/13 08:12:01;;;;;;;;;25.00;25.00;;;;;;;;5064754;28;45272;-82
2023/06/13 08:14:26;;;;;;;;;30.67;29.00;;;;;;;;5060961;28;45219;-79
2023/06/13 08:16:51;;;;;;;;;50.00;39.67;;;;;;;;5062724;28;45300;-81
2023/06/13 08:19:17;;;;;;;;;55.00;44.00;;;;;;;;5062806;28;45270;-81
2023/06/13 08:21:42;;;;;;;;;36.00;31.33;;;;;;;;5063126;28;45220;-77
2023/06/13 08:24:08;;;;;;;;;65.50;57.50;;;;;;;;5060779;28;46120;-80
2023/06/13 08:26:33;;;;;;;;;68.75;58.25;;;;;;;;5062221;28;46318;-79
2023/06/13 08:29:01;;;;;;;;;41.33;34.33;;;;;;;;5062098;28;45213;-77
2023/06/13 08:31:27;;;;;;;;;47.33;38.00;;;;;;;;5062356;28;45334;-76
2023/06/13 08:33:52;;;;;;;;;56.67;46.67;;;;;;;;5062142;28;45341;-76
2023/06/13 08:36:18;;;;;;;;;50.33;41.67;;;;;;;;5060309;28;47614;-77
2023/06/13 08:38:43;;;;;;;;;47.67;38.67;;;;;;;;5061978;28;45363;-75
2023/06/13 08:41:10;;;;;;;;;87.00;82.50;;;;;;;;5060599;28;45362;-77
2023/06/13 08:43:35;;;;;;;;;64.50;54.50;;;;;;;;5062039;28;45388;-74
2023/06/13 08:46:00;;;;;;;;;68.50;60.50;;;;;;;;5060441;28;47026;-75
2023/06/13 08:48:26;;;;;;;;;37.67;31.67;;;;;;;;5060435;28;45346;-76
2023/06/13 08:50:52;;;;;;;;;35.00;30.33;;;;;;;;5060584;28;45322;-75
2023/06/13 08:53:17;;;;;;;;;65.50;55.00;;;;;;;;5061594;28;45251;-75
2023/06/13 08:55:44;;;;;;;;;31.67;28.67;;;;;;;;5061095;28;47773;-74
2023/06/13 08:58:10;;;;;;;;;51.00;42.33;;;;;;;;5062908;28;45332;-77
2023/06/13 09:00:36;;;;;;;;;28.33;27.00;;;;;;;;5069937;28;45223;-76
2023/06/13 09:03:03;;;;;;;;;41.00;33.33;;;;;;;;5072316;28;45117;-75
2023/06/13 09:05:29;;;;;;;;;52.33;41.33;;;;;;;;5066118;28;45910;-77
2023/06/13 09:07:58;;;;;;;;;63.00;53.25;;;;;;;;5062584;28;45353;-76
2023/06/13 09:10:23;;;;;;;;;28.00;28.00;;;;;;;;5064670;28;45285;-75
2023/06/13 09:12:51;;;;;;;;;44.33;36.00;;;;;;;;5066590;28;45820;-76
2023/06/13 09:15:17;;;;;;;;;74.50;68.25;;;;;;;;5061746;28;47138;-75
2023/06/13 09:17:42;;;;;;;;;61.50;51.25;;;;;;;;5060039;28;45643;-75
2023/06/13 09:20:08;;;;;;;;;27.67;25.00;;;;;;;;5065190;28;45341;-76
2023/06/13 09:22:34;;;;;;;;;38.00;33.00;;;;;;;;5062708;28;45432;-75
2023/06/13 09:25:00;;;;;;;;;31.33;27.67;;;;;;;;5062485;28;46507;-76
2023/06/13 09:27:26;;;;;;;;;56.00;45.33;;;;;;;;5061949;28;45379;-75
2023/06/13 09:29:52;;;;;;;;;84.50;79.00;;;;;;;;5061937;28;45228;-76
2023/06/13 09:32:18;;;;;;;;;24.67;24.33;;;;;;;;5061210;28;45256;-75
2023/06/13 09:34:45;;;;;;;;;43.67;35.33;;;;;;;;5061041;28;45279;-76
2023/06/13 09:37:10;;;;;;;;;31.67;29.67;;;;;;;;5060600;28;45248;-76
2023/06/13 09:39:45;;;;;;;;;24.00;22.67;;;;;;;;5061243;28;45506;-76
2023/06/13 09:42:10;;;;;;;;;22.00;22.00;;;;;;;;5061549;28;45307;-76
2023/06/13 09:44:36;;;;;;;;;25.33;25.00;;;;;;;;5061047;28;45274;-77
2023/06/13 09:47:01;;;;;;;;;36.67;32.67;;;;;;;;5063153;28;45203;-76
2023/06/13 09:49:32;;;;;;;;;24.67;24.67;;;;;;;;5061390;28;45478;-76
2023/06/13 09:52:01;;;;;;;;;36.00;31.50;;;;;;;;5059217;28;46199;-78
2023/06/13 09:54:29;;;;;;;;;51.33;41.33;;;;;;;;5061913;28;46112;-77
2023/06/13 09:56:55;;;;;;;;;68.25;58.75;;;;;;;;5063022;28;45751;-77
2023/06/13 09:59:20;;;;;;;;;68.00;59.75;;;;;;;;5060906;28;45495;-77
2023/06/13 10:01:49;;;;;;;;;34.67;29.33;;;;;;;;5062259;28;45441;-78
2023/06/13 10:04:15;;;;;;;;;100.50;92.25;;;;;;;;5063749;28;46147;-76
2023/06/13 10:06:41;;;;;;;;;67.50;59.75;;;;;;;;5060957;28;45479;-76
2023/06/13 10:09:06;;;;;;;;;38.67;33.33;;;;;;;;5061299;28;45388;-75
2023/06/13 10:11:34;;;;;;;;;34.00;29.00;;;;;;;;5059206;28;45276;-78
2023/06/13 10:14:03;;;;;;;;;23.00;23.00;;;;;;;;5050598;28;46589;-78
2023/06/13 10:16:30;;;;;;;;;29.67;28.00;;;;;;;;5063018;28;45435;-79
2023/06/13 10:18:57;;;;;;;;;36.00;31.00;;;;;;;;5062102;28;45153;-78
2023/06/13 10:21:23;;;;;;;;;53.33;43.33;;;;;;;;5061675;28;45570;-80
2023/06/13 10:23:49;;;;;;;;;19.00;18.33;;;;;;;;5066120;28;45358;-80
2023/06/13 10:26:34;;;;;;;;;19.33;19.33;;;;;;;;5061204;28;45317;-81
2023/06/13 10:29:20;;;;;;;;;19.33;19.33;;;;;;;;5062566;28;45488;-80
2023/06/13 10:31:59;;;;;;;;;18.67;18.00;;;;;;;;5053213;28;45500;-78
2023/06/13 10:34:42;;;;;;;;;17.00;17.00;;;;;;;;5059806;28;45364;-76
2023/06/13 10:37:26;;;;;;;;;18.00;18.00;;;;;;;;5065045;28;44700;-77
2023/06/13 10:40:05;;;;;;;;;23.00;22.33;;;;;;;;5064539;28;45331;-79
2023/06/13 10:42:36;;;;;;;;;55.33;44.00;;;;;;;;5063496;28;45281;-79
2023/06/13 10:45:04;;;;;;;;;44.67;37.33;;;;;;;;5060543;28;45970;-77
2023/06/13 10:47:29;;;;;;;;;21.33;20.00;;;;;;;;5061637;28;45419;-77
2023/06/13 10:49:56;;;;;;;;;18.33;18.33;;;;;;;;5059007;28;45292;-76
2023/06/13 10:52:22;;;;;;;;;19.33;19.33;;;;;;;;5061251;28;45243;-75
2023/06/13 10:54:54;;;;;;;;;16.67;16.33;;;;;;;;5052520;28;46459;-76
2023/06/13 10:57:20;;;;;;;;;18.33;18.33;;;;;;;;5050232;28;45442;-76
2023/06/13 10:59:46;;;;;;;;;18.00;18.00;;;;;;;;5048186;28;45436;-76
2023/06/13 11:02:15;;;;;;;;;15.33;15.33;;;;;;;;5043420;28;45414;-78
2023/06/13 11:04:45;;;;;;;;;16.33;16.33;;;;;;;;5040240;28;45985;-77
2023/06/13 11:07:25;;;;;;;;;17.00;17.00;;;;;;;;5044817;28;45288;-76
2023/06/13 11:10:03;;;;;;;;;50.00;40.67;;;;;;;;5040242;28;45545;-75
2023/06/13 11:12:29;;;;;;;;;82.25;80.00;;;;;;;;5039448;28;45446;-75
2023/06/13 11:14:56;;;;;;;;;38.67;34.00;;;;;;;;5042780;28;45785;-76
2023/06/13 11:17:21;;;;;;;;;18.00;17.67;;;;;;;;5056720;28;45284;-80
2023/06/13 11:19:46;;;;;;;;;20.00;19.67;;;;;;;;5062425;28;45551;-78
2023/06/13 11:22:15;;;;;;;;;17.33;16.00;;;;;;;;5062779;28;47280;-79
2023/06/13 11:24:41;;;;;;;;;31.33;29.00;;;;;;;;5056686;28;47248;-77
2023/06/13 11:27:13;;;;;;;;;36.00;31.00;;;;;;;;5061173;28;45265;-76
2023/06/13 11:29:39;;;;;;;;;15.33;15.33;;;;;;;;5063031;28;44744;-76
2023/06/13 11:32:08;;;;;;;;;15.67;15.67;;;;;;;;5064963;28;45459;-76
2023/06/13 11:34:35;;;;;;;;;17.00;17.00;;;;;;;;5067743;28;45312;-77
2023/06/13 11:37:03;;;;;;;;;18.67;17.33;;;;;;;;5054998;28;45362;-76
2023/06/13 11:39:40;;;;;;;;;22.00;21.67;;;;;;;;5052662;28;45348;-76
2023/06/13 11:42:06;;;;;;;;;17.67;17.33;;;;;;;;5064612;28;45425;-77
2023/06/13 11:44:31;;;;;;;;;30.67;29.00;;;;;;;;5064688;28;45852;-76
2023/06/13 11:46:57;;;;;;;;;39.67;34.33;;;;;;;;5064313;28;46293;-77
2023/06/13 11:49:22;;;;;;;;;17.33;17.33;;;;;;;;5066726;28;45573;-77
2023/06/13 11:51:47;;;;;;;;;14.67;14.67;;;;;;;;5065318;28;46265;-77
2023/06/13 11:54:12;;;;;;;;;16.33;16.33;;;;;;;;5067309;28;45263;-78
2023/06/13 11:56:50;;;;;;;;;17.00;17.00;;;;;;;;5066789;28;45339;-77
2023/06/13 11:59:16;;;;;;;;;16.00;16.00;;;;;;;;5066097;28;45349;-77
2023/06/13 12:01:42;;;;;;;;;15.00;14.00;;;;;;;;5066827;28;45493;-77
2023/06/13 12:04:07;;;;;;;;;15.67;15.33;;;;;;;;5066790;28;45944;-76
2023/06/13 12:06:32;;;;;;;;;13.33;13.00;;;;;;;;5066643;28;45369;-77
2023/06/13 12:08:58;;;;;;;;;16.67;16.67;;;;;;;;5065714;28;45407;-77
2023/06/13 12:11:23;;;;;;;;;16.33;16.33;;;;;;;;5061580;28;45371;-78
2023/06/13 12:13:55;;;;;;;;;17.33;17.00;;;;;;;;5057575;28;45667;-76
2023/06/13 12:16:21;;;;;;;;;17.00;16.67;;;;;;;;5063176;28;45282;-77
2023/06/13 12:18:49;;;;;;;;;15.67;15.67;;;;;;;;5064560;28;45291;-76
2023/06/13 12:21:15;;;;;;;;;47.67;39.33;;;;;;;;5064166;28;45584;-77
2023/06/13 12:23:40;;;;;;;;;36.33;31.33;;;;;;;;5067345;28;45416;-77
2023/06/13 12:26:06;;;;;;;;;26.33;26.00;;;;;;;;5066773;28;45281;-77
2023/06/13 12:28:33;;;;;;;;;40.33;33.33;;;;;;;;5065434;28;45299;-76
2023/06/13 12:31:05;;;;;;;;;16.67;16.67;;;;;;;;5061890;28;45371;-76
2023/06/13 12:33:34;;;;;;;;;16.00;16.00;;;;;;;;5066238;28;46041;-77
2023/06/13 12:36:00;;;;;;;;;54.67;43.67;;;;;;;;5063870;28;45291;-77
2023/06/13 12:38:27;;;;;;;;;19.67;19.67;;;;;;;;5063756;28;45333;-77
2023/06/13 12:40:52;;;;;;;;;17.67;17.67;;;;;;;;5064264;28;45478;-76
2023/06/13 12:43:22;;;;;;;;;20.00;17.00;;;;;;;;5068227;28;46292;-77
2023/06/13 12:45:48;;;;;;;;;20.67;19.67;;;;;;;;5070037;28;45231;-77
2023/06/13 12:48:19;;;;;;;;;32.67;29.33;;;;;;;;5063218;28;45209;-77
2023/06/13 12:50:46;;;;;;;;;19.67;19.00;;;;;;;;5063694;28;45406;-77
2023/06/13 12:53:11;;;;;;;;;20.33;19.33;;;;;;;;5062790;28;46118;-77
2023/06/13 12:55:38;;;;;;;;;18.00;16.67;;;;;;;;5061749;28;45220;-77
2023/06/13 12:58:22;;;;;;;;;17.33;17.33;;;;;;;;5062578;28;45238;-77
2023/06/13 13:00:47;;;;;;;;;24.33;22.67;;;;;;;;5061360;28;46052;-77
2023/06/13 13:03:12;;;;;;;;;20.67;20.67;;;;;;;;5063013;28;46009;-77
2023/06/13 13:05:37;;;;;;;;;35.67;31.00;;;;;;;;5062922;28;45220;-76
2023/06/13 13:08:02;;;;;;;;;41.33;34.67;;;;;;;;5064362;28;45164;-77
2023/06/13 13:10:30;;;;;;;;;36.00;30.67;;;;;;;;5064070;28;45228;-77
2023/06/13 13:12:56;;;;;;;;;37.00;31.67;;;;;;;;5065501;28;45211;-77
2023/06/13 13:15:21;;;;;;;;;19.00;18.00;;;;;;;;5068345;28;45214;-77
2023/06/13 13:17:46;;;;;;;;;16.33;16.00;;;;;;;;5063387;28;45109;-77
2023/06/13 13:20:11;;;;;;;;;20.00;19.00;;;;;;;;5063851;28;45374;-76
2023/06/13 13:22:36;;;;;;;;;26.00;24.67;;;;;;;;5061256;28;46086;-76
2023/06/13 13:25:02;;;;;;;;;26.00;24.33;;;;;;;;5063105;28;45488;-77
2023/06/13 13:27:27;;;;;;;;;25.67;24.67;;;;;;;;5062540;28;45317;-76
2023/06/13 13:29:52;;;;;;;;;31.67;27.00;;;;;;;;5062536;28;45361;-76
2023/06/13 13:32:17;;;;;;;;;46.00;38.33;;;;;;;;5063271;28;45407;-76
2023/06/13 13:34:43;;;;;;;;;43.33;36.00;;;;;;;;5059833;28;45760;-76
2023/06/13 13:37:08;;;;;;;;;20.67;19.33;;;;;;;;5060991;28;45338;-75
2023/06/13 13:39:33;;;;;;;;;40.67;34.67;;;;;;;;5061343;28;45343;-75
2023/06/13 13:41:58;;;;;;;;;18.67;18.67;;;;;;;;5060771;28;45485;-75
2023/06/13 13:44:23;;;;;;;;;52.75;42.50;;;;;;;;5061932;28;45330;-75
2023/06/13 13:46:49;;;;;;;;;39.00;34.00;;;;;;;;5059325;28;45486;-74
2023/06/13 13:49:14;;;;;;;;;37.33;33.67;;;;;;;;5060904;28;45353;-75
2023/06/13 13:51:41;;;;;;;;;21.00;21.00;;;;;;;;5060071;28;45537;-75
2023/06/13 13:54:06;;;;;;;;;50.00;40.33;;;;;;;;5060764;28;45389;-76
2023/06/13 13:56:31;;;;;;;;;16.67;16.67;;;;;;;;5060647;28;45453;-75
2023/06/13 13:58:56;;;;;;;;;17.67;16.67;;;;;;;;5059604;28;45466;-75
2023/06/13 14:01:21;;;;;;;;;20.33;19.67;;;;;;;;5060535;28;45822;-74
2023/06/13 14:03:47;;;;;;;;;19.00;18.67;;;;;;;;5061210;28;45283;-75
2023/06/13 14:06:12;;;;;;;;;50.00;40.33;;;;;;;;5062265;28;45290;-79
2023/06/13 14:08:38;;;;;;;;;36.00;30.67;;;;;;;;5061748;28;45361;-78
2023/06/13 14:11:03;;;;;;;;;16.33;15.00;;;;;;;;5062228;28;45603;-76
2023/06/13 14:13:29;;;;;;;;;22.67;21.67;;;;;;;;5064274;28;45168;-78